Time;durP1;ratioP1;P1;durP2;ratioP2;P2;SDS_P1;SDS_P2;PMS_P1;PMS_P2;Temp;Humidity;BMP_temperature;BMP_pressure;BME280_temperature;BME280_humidity;BME280_pressure;Samples;Min_cycle;Max_cycle;Signal;HPM_P1;HPM_P2
2023/08/08 00:01:17;;;;;;;2.17;1.08;;;;;;;16.25;100.00;64675.00;5051923;28;20212;-53
2023/08/08 00:03:42;;;;;;;0.98;0.82;;;;;;;16.51;100.00;64701.66;5050725;28;20288;-52
2023/08/08 00:06:08;;;;;;;0.75;0.75;;;;;;;16.43;100.00;64690.28;5051528;28;20639;-52
2023/08/08 00:08:33;;;;;;;1.50;0.77;;;;;;;16.27;100.00;64677.22;5051322;28;20628;-52
2023/08/08 00:10:59;;;;;;;0.82;0.60;;;;;;;16.13;100.00;64659.81;5051375;28;20214;-52
2023/08/08 00:13:24;;;;;;;0.80;0.80;;;;;;;16.17;100.00;64664.22;5033857;28;20208;-53
2023/08/08 00:15:50;;;;;;;1.15;1.15;;;;;;;16.04;100.00;64649.91;5051644;28;20194;-54
2023/08/08 00:18:15;;;;;;;1.13;1.08;;;;;;;15.92;100.00;64639.78;5051390;28;20607;-53
2023/08/08 00:20:41;;;;;;;1.23;1.13;;;;;;;16.18;100.00;64667.31;5051708;28;20571;-52
2023/08/08 00:23:06;;;;;;;1.88;1.33;;;;;;;15.98;100.00;64646.41;5051390;28;20262;-55
2023/08/08 00:25:32;;;;;;;1.45;1.33;;;;;;;16.05;100.00;64651.00;5051112;28;20220;-53
2023/08/08 00:27:57;;;;;;;3.55;1.30;;;;;;;15.98;100.00;64643.28;5051005;28;20731;-54
2023/08/08 00:30:23;;;;;;;1.10;1.00;;;;;;;15.95;100.00;64640.00;5051298;28;20205;-54
2023/08/08 00:32:48;;;;;;;1.25;0.90;;;;;;;15.78;100.00;64621.28;5051555;28;20209;-52
2023/08/08 00:35:14;;;;;;;1.00;0.98;;;;;;;15.86;100.00;64630.09;5050959;28;20668;-55
2023/08/08 00:37:40;;;;;;;0.80;0.80;;;;;;;15.80;100.00;64623.50;5051014;28;20204;-52
2023/08/08 00:40:06;;;;;;;0.90;0.90;;;;;;;15.80;100.00;64624.03;5050912;28;20284;-53
2023/08/08 00:42:31;;;;;;;1.05;0.90;;;;;;;15.83;100.00;64627.34;5051449;28;20259;-51
2023/08/08 00:45:01;;;;;;;0.88;0.88;;;;;;;15.81;100.00;64627.69;5050797;28;20684;-51
2023/08/08 00:47:28;;;;;;;0.75;0.75;;;;;;;15.76;100.00;64619.66;5050942;28;20327;-51
2023/08/08 00:49:53;;;;;;;1.88;0.75;;;;;;;15.85;100.00;64631.53;5051168;28;20652;-52
2023/08/08 00:52:19;;;;;;;1.27;1.20;;;;;;;15.74;100.00;64619.44;5050711;28;20255;-50
2023/08/08 00:54:44;;;;;;;1.05;1.00;;;;;;;15.83;100.00;64627.34;5050665;28;20209;-51
2023/08/08 00:57:10;;;;;;;0.73;0.73;;;;;;;15.83;100.00;64629.91;5050726;28;20210;-52
2023/08/08 00:59:36;;;;;;;1.90;1.10;;;;;;;15.69;100.00;64614.50;5050525;28;20616;-51
2023/08/08 01:02:02;;;;;;;0.90;0.90;;;;;;;15.63;100.00;64605.34;5051015;28;20258;-51
2023/08/08 01:04:27;;;;;;;1.52;1.13;;;;;;;15.60;100.00;64599.50;5050809;28;20202;-52
2023/08/08 01:07:08;;;;;;;1.00;0.77;;;;;;;15.36;100.00;64575.06;5050303;28;20205;-52
2023/08/08 01:09:41;;;;;;;1.05;1.00;;;;;;;15.72;100.00;64615.25;5050677;28;20212;-52
2023/08/08 01:12:10;;;;;;;1.20;1.20;;;;;;;15.71;100.00;64611.63;5033355;28;20224;-52
2023/08/08 01:14:37;;;;;;;0.70;0.70;;;;;;;15.56;100.00;64597.09;5050160;28;20216;-52
2023/08/08 01:17:04;;;;;;;0.77;0.65;;;;;;;15.54;100.00;64592.91;5050345;28;20202;-52
2023/08/08 01:19:32;;;;;;;1.17;1.08;;;;;;;15.57;100.00;64600.75;5049527;28;20302;-51
2023/08/08 01:22:06;;;;;;;2.10;1.15;;;;;;;15.49;100.00;64592.50;5050796;28;20213;-54
2023/08/08 01:24:36;;;;;;;0.80;0.80;;;;;;;15.50;100.00;64590.50;5050194;28;20211;-52
2023/08/08 01:27:02;;;;;;;1.40;1.10;;;;;;;15.38;100.00;64580.38;5031032;28;20224;-51
2023/08/08 01:29:28;;;;;;;1.30;1.20;;;;;;;15.40;100.00;64582.56;5032426;28;20210;-54
2023/08/08 01:31:54;;;;;;;0.88;0.88;;;;;;;15.34;100.00;64570.34;5050193;28;20663;-52
2023/08/08 01:34:20;;;;;;;0.77;0.77;;;;;;;15.37;100.00;64578.72;5032397;28;20652;-52
2023/08/08 01:37:02;;;;;;;0.88;0.88;;;;;;;15.44;100.00;64586.44;5049991;28;20206;-59
2023/08/08 01:39:30;;;;;;;1.23;1.13;;;;;;;15.31;100.00;64567.03;5050858;28;20205;-52
2023/08/08 01:41:57;;;;;;;0.85;0.85;;;;;;;15.29;100.00;64567.38;5032199;28;20213;-51
2023/08/08 01:44:25;;;;;;;0.85;0.80;;;;;;;15.28;100.00;64569.38;5050359;28;20224;-51
2023/08/08 01:46:52;;;;;;;1.20;1.08;;;;;;;15.30;100.00;64571.56;5049989;28;20205;-51
2023/08/08 01:49:18;;;;;;;1.00;0.90;;;;;;;15.17;100.00;64552.19;5050352;28;20205;-51
2023/08/08 01:51:43;;;;;;;1.63;1.20;;;;;;;15.07;100.00;64546.81;5050026;28;20255;-52
2023/08/08 01:54:09;;;;;;;1.85;1.30;;;;;;;15.08;100.00;64545.41;5050179;28;20732;-53
2023/08/08 01:56:34;;;;;;;1.67;0.90;;;;;;;15.05;100.00;64542.09;5049958;28;20537;-50
2023/08/08 01:59:00;;;;;;;1.30;1.15;;;;;;;15.05;100.00;64544.06;5050023;28;20204;-52
2023/08/08 02:01:26;;;;;;;1.52;1.08;;;;;;;15.01;100.00;64535.16;5050416;28;20209;-51
2023/08/08 02:03:51;;;;;;;1.13;1.13;;;;;;;14.94;100.00;64532.53;5049701;28;20197;-51
2023/08/08 02:06:17;;;;;;;1.15;1.05;;;;;;;15.13;100.00;64552.88;5049967;28;20221;-52
2023/08/08 02:08:43;;;;;;;2.75;1.35;;;;;;;15.04;100.00;64543.53;5049833;28;20659;-52
2023/08/08 02:11:08;;;;;;;1.40;1.13;;;;;;;15.00;100.00;64536.59;5032155;28;20258;-51
2023/08/08 02:13:34;;;;;;;1.30;1.20;;;;;;;15.01;100.00;64537.69;5049784;28;20259;-52
2023/08/08 02:15:59;;;;;;;1.75;1.17;;;;;;;15.06;100.00;64542.63;5049821;28;20255;-52
2023/08/08 02:18:25;;;;;;;1.40;1.30;;;;;;;14.99;100.00;64535.50;5050038;28;20660;-52
2023/08/08 02:20:50;;;;;;;1.20;1.10;;;;;;;14.87;100.00;64524.84;5049808;28;20202;-51
2023/08/08 02:23:16;;;;;;;1.40;1.30;;;;;;;14.87;100.00;64522.28;5049471;28;20200;-51
2023/08/08 02:25:42;;;;;;;1.13;1.05;;;;;;;14.72;100.00;64503.28;5049877;28;20338;-51
2023/08/08 02:28:07;;;;;;;2.65;1.45;;;;;;;14.70;100.00;64505.59;5035035;28;20216;-51
2023/08/08 02:30:32;;;;;;;1.73;1.27;;;;;;;14.72;100.00;64505.81;5053453;28;20198;-51
2023/08/08 02:32:58;;;;;;;1.52;1.20;;;;;;;14.80;100.00;64511.53;5052741;28;20710;-51
2023/08/08 02:35:24;;;;;;;1.40;1.30;;;;;;;14.75;100.00;64511.66;5053269;28;20555;-52
2023/08/08 02:37:49;;;;;;;1.30;1.20;;;;;;;14.81;100.00;64515.16;5052828;28;20288;-51
2023/08/08 02:40:14;;;;;;;1.27;1.17;;;;;;;14.83;100.00;64517.91;5052966;28;20343;-51
2023/08/08 02:42:40;;;;;;;2.70;1.30;;;;;;;14.89;100.00;64524.50;5035145;28;20594;-53
2023/08/08 02:45:06;;;;;;;1.35;1.20;;;;;;;14.74;100.00;64508.03;5052984;28;20873;-51
2023/08/08 02:47:32;;;;;;;4.20;1.60;;;;;;;14.79;100.00;64513.50;5052750;28;20672;-51
2023/08/08 02:49:57;;;;;;;1.60;1.50;;;;;;;14.91;100.00;64526.69;5053041;28;20205;-52
2023/08/08 02:52:23;;;;;;;2.38;1.23;;;;;;;14.87;100.00;64524.28;5052904;28;20300;-51
2023/08/08 02:54:49;;;;;;;1.97;1.63;;;;;;;14.97;100.00;64535.81;5052534;28;20224;-51
2023/08/08 02:57:15;;;;;;;2.25;1.20;;;;;;;14.92;100.00;64530.34;5052538;28;20675;-52
2023/08/08 02:59:40;;;;;;;3.83;1.58;;;;;;;14.83;100.00;64519.88;5052586;28;20205;-52
2023/08/08 03:02:06;;;;;;;2.35;1.50;;;;;;;14.79;100.00;64516.03;5034658;28;20223;-52
2023/08/08 03:04:31;;;;;;;2.58;1.90;;;;;;;14.92;100.00;64527.25;5052366;28;20208;-51
2023/08/08 03:06:57;;;;;;;2.78;1.30;;;;;;;14.86;100.00;64520.66;5052300;28;20632;-51
2023/08/08 03:09:22;;;;;;;1.83;1.70;;;;;;;14.79;100.00;64516.03;5052378;28;20591;-52
2023/08/08 03:11:48;;;;;;;1.58;1.48;;;;;;;14.81;100.00;64515.69;5052340;28;20216;-52
2023/08/08 03:14:13;;;;;;;2.40;1.58;;;;;;;14.82;100.00;64516.25;5052395;28;20710;-53
2023/08/08 03:16:39;;;;;;;1.83;1.73;;;;;;;14.80;100.00;64517.16;5052584;28;20213;-53
2023/08/08 03:19:05;;;;;;;1.67;1.50;;;;;;;14.88;100.00;64520.31;5034464;28;20660;-53
2023/08/08 03:21:31;;;;;;;1.73;1.63;;;;;;;14.86;100.00;64526.28;5052052;28;20232;-57
2023/08/08 03:23:57;;;;;;;2.97;1.90;;;;;;;14.86;100.00;64523.75;5052134;28;20734;-52
2023/08/08 03:26:23;;;;;;;1.73;1.63;;;;;;;14.86;100.00;64520.66;5052095;28;20205;-52
2023/08/08 03:28:50;;;;;;;3.00;1.38;;;;;;;14.70;100.00;64503.06;5052452;28;20229;-52
2023/08/08 03:31:20;;;;;;;1.98;1.88;;;;;;;14.73;100.00;64506.91;5051873;28;20209;-52
2023/08/08 03:33:45;;;;;;;2.15;1.98;;;;;;;14.78;100.00;64511.84;5051850;28;20202;-52
2023/08/08 03:36:11;;;;;;;2.27;2.00;;;;;;;14.71;100.00;64504.72;5051807;28;20213;-52
2023/08/08 03:38:37;;;;;;;2.28;2.08;;;;;;;14.79;100.00;64512.94;5051657;28;20686;-54
2023/08/08 03:41:03;;;;;;;5.57;1.90;;;;;;;14.80;100.00;64519.13;5034436;28;20262;-52
2023/08/08 03:43:29;;;;;;;2.40;2.20;;;;;;;14.80;100.00;64514.06;5051992;28;20205;-56
2023/08/08 03:45:54;;;;;;;3.03;2.10;;;;;;;14.70;100.00;64508.69;5052009;28;20209;-52
2023/08/08 03:48:19;;;;;;;2.03;1.73;;;;;;;14.70;100.00;64503.63;5051793;28;20219;-52
2023/08/08 03:50:46;;;;;;;3.00;2.00;;;;;;;14.71;100.00;64504.16;5051792;28;20213;-54
2023/08/08 03:53:12;;;;;;;4.45;2.40;;;;;;;14.72;100.00;64503.28;5051648;28;20206;-52
2023/08/08 03:55:37;;;;;;;2.15;1.95;;;;;;;14.78;100.00;64514.41;5051791;28;20251;-52
2023/08/08 03:58:03;;;;;;;2.20;2.00;;;;;;;14.87;100.00;64522.28;5033934;28;20213;-56
2023/08/08 04:00:28;;;;;;;2.17;2.00;;;;;;;14.84;100.00;64521.53;5052059;28;20518;-56
2023/08/08 04:02:54;;;;;;;1.85;1.75;;;;;;;14.98;100.00;64536.94;5033671;28;20209;-53
2023/08/08 04:05:19;;;;;;;3.20;2.00;;;;;;;14.94;100.00;64531.97;5033740;28;20269;-53
2023/08/08 04:07:45;;;;;;;2.20;2.10;;;;;;;14.99;100.00;64537.47;5033513;28;20696;-56
2023/08/08 04:10:11;;;;;;;2.95;2.75;;;;;;;15.00;100.00;64539.13;5033509;28;20205;-53
2023/08/08 04:12:37;;;;;;;4.35;2.63;;;;;;;14.95;100.00;64530.53;5051201;28;20244;-56
2023/08/08 04:15:02;;;;;;;2.78;2.50;;;;;;;15.01;100.00;64542.22;5051605;28;20333;-53
2023/08/08 04:17:28;;;;;;;5.80;2.75;;;;;;;14.98;100.00;64533.84;5051684;28;20209;-55
2023/08/08 04:19:53;;;;;;;3.25;2.95;;;;;;;14.86;100.00;64523.75;5051250;28;20223;-55
2023/08/08 04:22:19;;;;;;;3.80;2.92;;;;;;;15.06;100.00;64545.19;5033322;28;20267;-52
2023/08/08 04:24:45;;;;;;;5.97;3.20;;;;;;;15.04;100.00;64542.97;5051472;28;20205;-54
2023/08/08 04:27:10;;;;;;;3.22;2.85;;;;;;;14.95;100.00;64531.09;5033765;28;20291;-54
2023/08/08 04:29:36;;;;;;;5.22;3.30;;;;;;;14.89;100.00;64527.03;5054131;28;20713;-53
2023/08/08 04:32:02;;;;;;;3.28;2.97;;;;;;;14.95;100.00;64530.53;5020576;28;20209;-53
2023/08/08 04:34:28;;;;;;;5.67;2.60;;;;;;;14.93;100.00;64526.34;5053903;28;20198;-52
2023/08/08 04:36:53;;;;;;;4.60;3.20;;;;;;;14.84;100.00;64519.00;5035519;28;20274;-51
2023/08/08 04:39:18;;;;;;;3.70;3.20;;;;;;;14.91;100.00;64526.13;5053495;28;20196;-51
2023/08/08 04:41:44;;;;;;;5.90;3.20;;;;;;;15.24;100.00;64562.44;5053133;28;20279;-55
2023/08/08 04:44:09;;;;;;;3.25;2.90;;;;;;;15.50;100.00;64590.50;5053753;28;20228;-51
2023/08/08 04:46:35;;;;;;;3.53;3.22;;;;;;;15.79;100.00;64625.50;5052530;28;20295;-54
2023/08/08 04:49:00;;;;;;;3.28;2.97;;;;;;;16.01;100.00;64649.16;5032170;28;20222;-54
2023/08/08 04:51:25;;;;;;;3.35;2.28;;;;;;;16.25;100.00;64672.47;5034785;28;20223;-56
2023/08/08 04:53:51;;;;;;;6.07;2.95;;;;;;;16.51;100.00;64701.09;5051045;28;20201;-52
2023/08/08 04:56:16;;;;;;;3.53;2.30;;;;;;;16.19;100.00;64668.97;5051371;28;20210;-55
2023/08/08 04:58:57;;;;;;;3.15;2.25;;;;;;;16.75;100.00;64728.09;5050859;28;20284;-53
2023/08/08 05:01:23;;;;;;;2.67;2.05;;;;;;;16.75;100.00;64730.63;5033960;28;20359;-59
2023/08/08 05:03:48;;;;;;;2.40;2.20;;;;;;;16.77;100.00;64729.72;5052101;28;20266;-51
2023/08/08 05:06:14;;;;;;;3.15;2.55;;;;;;;16.86;100.00;64741.66;5052075;28;20206;-54
2023/08/08 05:08:39;;;;;;;2.92;2.38;;;;;;;16.49;100.00;64702.00;5050470;28;20218;-55
2023/08/08 05:11:05;;;;;;;2.50;2.30;;;;;;;17.00;100.00;64757.06;5050841;28;20256;-53
2023/08/08 05:13:30;;;;;;;3.03;2.83;;;;;;;16.86;100.00;64739.66;5050355;28;20647;-54
2023/08/08 05:15:55;;;;;;;3.47;2.80;;;;;;;17.12;100.00;64770.28;5051292;28;20280;-52
2023/08/08 05:18:21;;;;;;;3.53;2.50;;;;;;;16.73;100.00;64725.34;5050959;28;20204;-54
2023/08/08 05:20:47;;;;;;;3.10;2.83;;;;;;;16.59;100.00;64713.00;5051422;28;20670;-51
2023/08/08 05:23:13;;;;;;;2.72;2.42;;;;;;;16.48;100.00;64700.34;5051262;28;20549;-53
2023/08/08 05:25:39;;;;;;;6.82;5.00;;;;;;;16.67;100.00;64719.28;5051241;28;20209;-52
2023/08/08 05:28:04;;;;;;;5.20;3.25;;;;;;;16.77;100.00;64732.84;5051032;28;20216;-51
2023/08/08 05:30:31;;;;;;;4.53;2.80;;;;;;;16.56;100.00;64709.69;5033519;28;20215;-55
2023/08/08 05:32:56;;;;;;;3.22;2.33;;;;;;;16.18;100.00;64665.31;5050450;28;20220;-57
2023/08/08 05:35:22;;;;;;;2.97;2.10;;;;;;;15.93;100.00;64637.81;5050423;28;20201;-51
2023/08/08 05:37:47;;;;;;;2.67;2.28;;;;;;;15.83;100.00;64627.34;5032371;28;20292;-52
2023/08/08 05:40:13;;;;;;;2.75;2.55;;;;;;;16.04;100.00;64649.91;5049495;28;20229;-52
2023/08/08 05:42:39;;;;;;;5.20;3.13;;;;;;;15.92;100.00;64639.25;5047730;28;20232;-52
2023/08/08 05:45:05;;;;;;;4.43;2.63;;;;;;;16.04;100.00;64649.91;5031087;28;20651;-51
2023/08/08 05:47:32;;;;;;;3.08;2.47;;;;;;;16.20;100.00;64667.50;5049051;28;20305;-51
2023/08/08 05:49:58;;;;;;;3.17;2.72;;;;;;;16.13;100.00;64659.25;5049026;28;20370;-53
2023/08/08 05:52:23;;;;;;;4.32;3.00;;;;;;;16.56;100.00;64707.16;5050245;28;20205;-51
2023/08/08 05:54:49;;;;;;;4.40;2.72;;;;;;;16.50;100.00;64703.09;5050129;28;20209;-52
2023/08/08 05:57:14;;;;;;;2.95;2.75;;;;;;;16.51;100.00;64701.66;5050347;28;20257;-50
2023/08/08 05:59:40;;;;;;;2.35;1.83;;;;;;;16.84;100.00;64736.91;5050897;28;20209;-52
2023/08/08 06:02:06;;;;;;;3.38;2.33;;;;;;;16.86;99.84;64739.09;5053913;28;20216;-55
2023/08/08 06:04:31;;;;;;;2.47;2.28;;;;;;;16.99;98.07;64753.97;5053721;28;20197;-57
2023/08/08 06:06:57;;;;;;;2.38;2.22;;;;;;;16.86;99.75;64741.66;5053419;28;20210;-54
2023/08/08 06:09:22;;;;;;;3.35;3.03;;;;;;;16.91;100.00;64745.16;5053832;28;20209;-52
2023/08/08 06:11:48;;;;;;;4.88;2.88;;;;;;;17.18;100.00;64774.34;5053277;28;20201;-51
2023/08/08 06:14:14;;;;;;;2.70;2.50;;;;;;;17.15;100.00;64771.06;5053547;28;20210;-52
2023/08/08 06:16:39;;;;;;;3.35;2.90;;;;;;;16.99;100.00;64753.44;5053281;28;20699;-52
2023/08/08 06:19:06;;;;;;;3.15;2.85;;;;;;;16.78;100.00;64731.41;5053220;28;20205;-52
2023/08/08 06:21:31;;;;;;;3.63;2.63;;;;;;;16.98;99.64;64754.88;5053045;28;20288;-52
2023/08/08 06:23:57;;;;;;;3.67;2.85;;;;;;;16.99;99.37;64751.41;5053557;28;20228;-55
2023/08/08 06:26:23;;;;;;;2.75;2.55;;;;;;;17.28;100.00;64787.91;5053234;28;20260;-51
2023/08/08 06:28:48;;;;;;;3.08;2.80;;;;;;;17.23;99.21;64777.84;5052970;28;20248;-52
2023/08/08 06:31:14;;;;;;;5.35;2.55;;;;;;;16.81;97.13;64733.59;5054179;28;20251;-52
2023/08/08 06:33:40;;;;;;;3.08;2.72;;;;;;;17.05;98.87;64760.03;5052965;28;20217;-53
2023/08/08 06:36:06;;;;;;;3.15;2.83;;;;;;;17.22;96.02;64776.22;5052802;28;20253;-55
2023/08/08 06:38:34;;;;;;;6.45;2.85;;;;;;;17.47;96.37;64808.84;5052764;28;20181;-55
2023/08/08 06:41:03;;;;;;;4.53;2.22;;;;;;;17.91;93.05;64854.28;5053162;28;20323;-55
2023/08/08 06:43:28;;;;;;;5.15;2.55;;;;;;;17.46;91.22;64807.75;5053233;28;20212;-57
2023/08/08 06:45:54;;;;;;;3.00;1.88;;;;;;;17.29;93.70;64789.03;5053250;28;20579;-56
2023/08/08 06:48:19;;;;;;;3.60;2.40;;;;;;;18.22;88.12;64891.00;5052809;28;20762;-54
2023/08/08 06:50:45;;;;;;;3.45;2.35;;;;;;;18.14;88.32;64882.19;5052826;28;20236;-56
2023/08/08 06:53:10;;;;;;;2.45;2.25;;;;;;;18.39;88.92;64904.66;5052800;28;20569;-55
2023/08/08 06:55:36;;;;;;;2.30;2.20;;;;;;;19.16;85.52;64989.06;5034993;28;20690;-54
2023/08/08 06:58:01;;;;;;;3.05;2.13;;;;;;;18.78;81.79;64950.25;5052926;28;20323;-51
2023/08/08 07:00:27;;;;;;;2.10;2.00;;;;;;;18.49;82.85;64920.25;5053099;28;20212;-51
2023/08/08 07:02:53;;;;;;;2.13;1.70;;;;;;;17.84;80.85;64847.09;5053000;28;20263;-51
2023/08/08 07:05:19;;;;;;;2.25;2.05;;;;;;;17.77;84.11;64841.94;5052853;28;20258;-52
2023/08/08 07:07:44;;;;;;;3.08;2.05;;;;;;;17.63;82.08;64821.41;5052382;28;20220;-51
2023/08/08 07:10:11;;;;;;;2.10;1.90;;;;;;;17.80;82.96;64844.69;5053271;28;20209;-54
2023/08/08 07:12:37;;;;;;;1.92;1.80;;;;;;;18.28;80.87;64893.06;5051675;28;20699;-53
2023/08/08 07:15:03;;;;;;;2.05;1.90;;;;;;;19.00;77.45;64971.97;5053308;28;20212;-51
2023/08/08 07:17:29;;;;;;;3.58;2.33;;;;;;;18.71;74.91;64941.97;5052573;28;20639;-53
2023/08/08 07:19:54;;;;;;;2.65;1.80;;;;;;;18.25;73.53;64889.75;5052287;28;20213;-57
2023/08/08 07:22:20;;;;;;;1.73;1.63;;;;;;;18.08;73.24;64873.56;5052988;28;20343;-51
2023/08/08 07:24:46;;;;;;;1.83;1.73;;;;;;;18.66;74.17;64934.47;5034427;28;20209;-52
2023/08/08 07:27:11;;;;;;;2.08;1.88;;;;;;;18.96;75.18;64969.56;5052048;28;20636;-52
2023/08/08 07:29:37;;;;;;;1.60;1.50;;;;;;;18.32;72.42;64896.94;5052624;28;20245;-51
2023/08/08 07:32:04;;;;;;;1.70;1.60;;;;;;;18.42;71.85;64911.06;5052467;28;20274;-51
2023/08/08 07:34:29;;;;;;;1.60;1.50;;;;;;;18.00;72.80;64861.63;5052572;28;20675;-55
2023/08/08 07:36:56;;;;;;;1.67;1.58;;;;;;;18.69;72.54;64939.75;5051741;28;20243;-53
2023/08/08 07:39:21;;;;;;;3.92;2.03;;;;;;;18.61;70.54;64930.94;5052085;28;20540;-56
2023/08/08 07:41:47;;;;;;;1.98;1.50;;;;;;;18.25;74.57;64892.31;5052161;28;20216;-55
2023/08/08 07:44:12;;;;;;;2.53;1.70;;;;;;;18.40;72.23;64908.84;5052498;28;20209;-52
2023/08/08 07:46:38;;;;;;;2.25;1.98;;;;;;;18.23;71.39;64889.56;5052059;28;20208;-52
2023/08/08 07:49:05;;;;;;;1.88;1.30;;;;;;;18.26;70.57;64893.41;5033915;28;20217;-52
2023/08/08 07:51:30;;;;;;;2.53;1.42;;;;;;;18.41;70.08;64907.41;5052078;28;20229;-52
2023/08/08 07:53:56;;;;;;;1.40;1.30;;;;;;;18.30;69.18;64897.81;5051911;28;20671;-51
2023/08/08 07:56:22;;;;;;;3.17;1.80;;;;;;;18.67;72.12;64935.56;5052304;28;20701;-53
2023/08/08 07:58:48;;;;;;;4.88;1.25;;;;;;;19.13;71.92;64990.88;5051611;28;20668;-54
2023/08/08 08:01:14;;;;;;;1.30;1.20;;;;;;;18.72;67.78;64940.53;5051619;28;20209;-55
2023/08/08 08:03:40;;;;;;;2.40;1.30;;;;;;;18.60;70.71;64927.28;5052459;28;20196;-55
2023/08/08 08:06:05;;;;;;;1.67;1.58;;;;;;;18.98;67.81;64969.75;5051400;28;20726;-58
2023/08/08 08:08:31;;;;;;;1.58;1.38;;;;;;;18.56;67.49;64923.44;5051864;28;20737;-53
2023/08/08 08:10:56;;;;;;;1.13;1.13;;;;;;;18.53;69.58;64924.66;5033495;28;20259;-54
2023/08/08 08:13:22;;;;;;;2.35;1.70;;;;;;;19.23;69.25;64997.34;5051751;28;20205;-51
2023/08/08 08:15:47;;;;;;;1.60;1.38;;;;;;;19.68;66.57;65046.50;5052259;28;20673;-54
2023/08/08 08:18:13;;;;;;;1.92;1.20;;;;;;;19.41;64.36;65016.69;5051585;28;20213;-52
2023/08/08 08:20:41;;;;;;;2.70;1.30;;;;;;;18.99;63.41;64973.41;5033725;28;20209;-51
2023/08/08 08:23:06;;;;;;;1.15;1.08;;;;;;;19.08;64.42;64980.25;5051194;28;20672;-52
2023/08/08 08:25:32;;;;;;;1.30;1.20;;;;;;;18.58;64.39;64927.63;5051052;28;20213;-50
2023/08/08 08:27:58;;;;;;;1.25;1.15;;;;;;;18.74;66.81;64940.72;5051139;28;20217;-51
2023/08/08 08:30:25;;;;;;;1.42;1.20;;;;;;;19.25;66.00;64997.00;5051421;28;20209;-52
2023/08/08 08:32:51;;;;;;;1.65;1.55;;;;;;;19.56;63.20;65033.25;5051641;28;20202;-52
2023/08/08 08:35:17;;;;;;;3.28;1.63;;;;;;;19.64;65.25;65044.09;5051617;28;20250;-53
2023/08/08 08:37:42;;;;;;;5.22;1.60;;;;;;;19.97;66.13;65078.53;5051555;28;20217;-53
2023/08/08 08:40:09;;;;;;;2.33;1.55;;;;;;;19.58;64.42;65034.91;5051132;28;20690;-53
2023/08/08 08:42:35;;;;;;;5.05;1.63;;;;;;;19.46;65.77;65022.22;5051351;28;20220;-55
2023/08/08 08:45:03;;;;;;;2.75;1.80;;;;;;;19.74;64.87;65052.56;5051792;28;20201;-51
2023/08/08 08:47:30;;;;;;;2.92;1.48;;;;;;;19.64;64.82;65042.09;5051310;28;20256;-51
2023/08/08 08:49:57;;;;;;;3.35;1.73;;;;;;;19.47;65.43;65023.31;5052380;28;20250;-52
2023/08/08 08:52:23;;;;;;;1.38;1.20;;;;;;;19.91;64.70;65071.91;5050762;28;20216;-55
2023/08/08 08:54:52;;;;;;;2.55;1.50;;;;;;;19.52;62.64;65030.84;5051331;28;20304;-51
2023/08/08 08:57:19;;;;;;;1.90;1.50;;;;;;;19.50;62.97;65029.19;5051524;28;20606;-51
2023/08/08 08:59:44;;;;;;;2.13;1.58;;;;;;;19.06;63.74;64978.59;5050678;28;20215;-54
2023/08/08 09:02:10;;;;;;;5.13;1.70;;;;;;;19.77;65.86;65055.91;5050953;28;20588;-53
2023/08/08 09:04:37;;;;;;;2.13;1.92;;;;;;;19.82;63.87;65061.41;5050661;28;20309;-52
2023/08/08 09:07:06;;;;;;;1.83;1.73;;;;;;;19.88;61.99;65068.59;5050487;28;20272;-53
2023/08/08 09:09:36;;;;;;;2.63;1.83;;;;;;;19.88;64.44;65066.03;5051407;28;20205;-51
2023/08/08 09:12:04;;;;;;;2.13;1.92;;;;;;;20.65;63.66;65152.56;5050880;28;20270;-55
2023/08/08 09:14:30;;;;;;;3.83;1.75;;;;;;;20.05;60.54;65086.81;5050642;28;20209;-51
2023/08/08 09:16:57;;;;;;;1.75;1.27;;;;;;;19.72;61.05;65050.91;5032638;28;20221;-51
2023/08/08 09:19:23;;;;;;;2.08;1.45;;;;;;;19.63;62.05;65041.00;5051837;28;20625;-51
2023/08/08 09:21:51;;;;;;;2.95;1.80;;;;;;;19.62;63.11;65039.88;5050511;28;20213;-51
2023/08/08 09:24:18;;;;;;;1.58;1.48;;;;;;;19.69;62.15;65049.63;5051707;28;20201;-52
2023/08/08 09:26:44;;;;;;;1.63;1.50;;;;;;;19.96;61.70;65076.88;5049820;28;20217;-56
2023/08/08 09:29:13;;;;;;;1.65;1.50;;;;;;;19.96;61.23;65076.88;5032407;28;20266;-51
2023/08/08 09:31:39;;;;;;;4.93;1.42;;;;;;;19.74;60.01;65052.56;5050067;28;20205;-53
2023/08/08 09:34:06;;;;;;;1.30;1.20;;;;;;;19.68;61.71;65046.50;5050519;28;20192;-52
2023/08/08 09:36:33;;;;;;;2.30;1.50;;;;;;;20.05;60.37;65087.38;5050086;28;20220;-51
2023/08/08 09:38:59;;;;;;;4.38;2.10;;;;;;;20.09;60.50;65093.78;5050459;28;20209;-51
2023/08/08 09:41:25;;;;;;;2.13;1.92;;;;;;;20.30;59.45;65113.91;5059711;23;20813;-51
2023/08/08 09:43:53;;;;;;;1.83;1.48;;;;;;;20.31;60.05;65117.56;5049866;28;20197;-51
2023/08/08 09:46:20;;;;;;;1.90;1.55;;;;;;;20.40;58.33;65122.41;5061392;23;20229;-51
2023/08/08 09:48:47;;;;;;;2.22;1.45;;;;;;;21.02;59.43;65193.50;5050247;28;20694;-55
2023/08/08 09:51:14;;;;;;;1.65;1.55;;;;;;;21.14;55.87;65204.22;5049916;28;20217;-55
2023/08/08 09:53:41;;;;;;;2.42;1.65;;;;;;;20.91;57.30;65181.31;5050894;28;20253;-55
2023/08/08 09:56:07;;;;;;;1.80;1.70;;;;;;;20.97;55.93;65187.41;5050160;28;20304;-55
2023/08/08 09:58:33;;;;;;;1.83;1.73;;;;;;;20.71;55.35;65159.22;5050212;28;20205;-55
2023/08/08 10:00:59;;;;;;;1.88;1.77;;;;;;;20.67;55.08;65157.34;5050272;28;20366;-51
2023/08/08 10:03:26;;;;;;;1.67;1.48;;;;;;;21.13;54.22;65205.66;5049926;28;20205;-51
2023/08/08 10:05:52;;;;;;;1.20;1.20;;;;;;;20.58;55.48;65145.38;5049872;28;20205;-52
2023/08/08 10:08:18;;;;;;;2.53;1.65;;;;;;;21.49;55.32;65245.47;5049586;28;20228;-52
2023/08/08 10:10:46;;;;;;;2.58;1.58;;;;;;;21.35;53.24;65232.56;5049892;28;20238;-51
2023/08/08 10:13:25;;;;;;;1.70;1.30;;;;;;;21.14;53.13;65206.78;5048611;28;20280;-51
2023/08/08 10:15:52;;;;;;;1.40;1.30;;;;;;;21.10;53.31;65201.78;5049896;28;20201;-51
2023/08/08 10:18:22;;;;;;;1.65;1.55;;;;;;;21.02;54.13;65193.50;5050204;28;20236;-56
2023/08/08 10:20:49;;;;;;;1.70;1.60;;;;;;;21.12;55.12;65204.00;5049868;28;20205;-54
2023/08/08 10:23:18;;;;;;;1.77;1.67;;;;;;;21.64;54.68;65259.50;5032012;28;20266;-52
2023/08/08 10:25:46;;;;;;;3.63;1.73;;;;;;;21.85;51.56;65284.78;5049452;28;20205;-57
2023/08/08 10:28:14;;;;;;;4.80;1.65;;;;;;;21.50;51.78;65246.59;5049526;28;20214;-53
2023/08/08 10:30:48;;;;;;;2.30;1.73;;;;;;;22.13;51.71;65313.19;5030196;28;20292;-53
2023/08/08 10:33:17;;;;;;;2.55;1.85;;;;;;;21.55;51.72;65252.09;5050044;28;20212;-55
2023/08/08 10:35:55;;;;;;;1.67;1.58;;;;;;;21.66;52.75;65263.72;5049843;28;20229;-56
2023/08/08 10:38:22;;;;;;;2.40;2.20;;;;;;;22.06;51.69;65307.47;5049593;28;20228;-56
2023/08/08 10:40:47;;;;;;;2.20;2.00;;;;;;;21.93;51.04;65293.63;5049584;28;20292;-54
2023/08/08 10:43:13;;;;;;;1.77;1.63;;;;;;;21.87;51.50;65286.44;5031977;28;20301;-55
2023/08/08 10:45:44;;;;;;;1.75;1.65;;;;;;;21.65;52.80;65265.72;5031712;28;20209;-54
2023/08/08 10:48:10;;;;;;;2.53;1.33;;;;;;;21.69;52.13;65267.59;5051847;28;20275;-57
2023/08/08 10:50:41;;;;;;;1.67;1.58;;;;;;;21.94;52.15;65294.19;5035438;28;20202;-54
2023/08/08 10:53:10;;;;;;;1.48;1.38;;;;;;;21.60;52.29;65257.66;5053099;28;20212;-51
2023/08/08 10:55:36;;;;;;;1.50;1.40;;;;;;;21.96;52.09;65296.41;5052982;28;20259;-55
2023/08/08 10:58:08;;;;;;;1.67;1.60;;;;;;;21.75;52.07;65273.69;5034980;28;20210;-57
2023/08/08 11:00:36;;;;;;;1.70;1.60;;;;;;;22.41;51.37;65346.19;5052670;28;20220;-53
2023/08/08 11:03:04;;;;;;;1.88;1.23;;;;;;;21.93;51.92;65293.63;5052884;28;20221;-55
2023/08/08 11:05:31;;;;;;;1.55;1.45;;;;;;;22.22;52.14;65323.13;5052921;28;20207;-53
2023/08/08 11:07:59;;;;;;;1.40;1.30;;;;;;;22.66;49.46;65373.34;5052755;28;20275;-55
2023/08/08 11:10:30;;;;;;;1.80;1.40;;;;;;;22.34;50.13;65338.44;5052509;28;20205;-57
2023/08/08 11:13:04;;;;;;;1.25;0.93;;;;;;;22.13;50.72;65315.75;5034421;28;20225;-54
2023/08/08 11:15:32;;;;;;;1.30;1.20;;;;;;;22.13;49.90;65315.19;5052767;28;20268;-54
2023/08/08 11:17:59;;;;;;;1.25;1.15;;;;;;;22.07;50.99;65311.69;5035713;28;20286;-54
2023/08/08 11:20:30;;;;;;;1.10;0.90;;;;;;;22.43;49.81;65350.97;5034314;28;20210;-54
2023/08/08 11:22:56;;;;;;;0.95;0.93;;;;;;;22.11;49.96;65313.53;5053311;28;20224;-54
2023/08/08 11:25:24;;;;;;;1.50;1.40;;;;;;;22.14;49.46;65313.75;5052278;28;20186;-61